Aérodrome :
LOGIN :

S'inscrire | Disclaimer

   EN    FR    IT 

 










Légende :    VFR   VFR Marginal   IFR   IFR Intensif   IFR Très Intensif
Visi : 
Plafond : 
>= 8 km
>= 3000ft
5 à 8 km
1000 à 3000 ft
1500m à 5 km
500 à 1000 ft
800 à 1500m
200 à 500 ft
< 800m
< 200 ft
Symboles :   Orages  Brouillard  Fortes neiges  Fortes précipitations  Vent > 20 kt
SIGMETs :   Divers  Orages  Givrage  Turbulence  Onde Orograph.  Cendres Volcan.







- Altitude de l'aérodrome : 870 ft
- Code IATA : ETZ
- Voir les cartes d'approche


LFJL - Metz Nancy Lorraine

DERNIER METAR :
  • 172100Z AUTO 31005KT 0800 0650 R22/0900U R04/1300U FG VV/// 05/05 Q1026 TEMPO 0400 FG

METARs EXPIRÉS :
  • 172030Z AUTO 31003KT 0700 0650 R22/0900N R04/0750N FG VV/// 05/05 Q1026 TEMPO 0400 FG
  • 172000Z AUTO 31002KT 1400 0800 R22/1000U R04/1500N BCFG VV/// 05/05 Q1026 TEMPO 0400 FG
  • 171930Z AUTO 32003KT 0550 R22/0650N R04/0700U FG VV/// 05/05 Q1026 NOSIG
  • 171900Z AUTO VRB02KT 0900 0700 R22/1400D R04/0800N FG VV/// 06/05 Q1026 TEMPO 0400 FG
  • 171830Z AUTO VRB02KT 2200 BR OVC002 06/05 Q1026 TEMPO 0400 FG VV///

TAF TAF LFJL
Valide du 17 à 18h jusqu'au 18 à 18h UTC


171700Z 1718/1818 01003KT 2500 BR OVC002
PROB40 1718/1809 0400 FG VV///
BECMG 1809/1811 26008KT 8000 NSW BKN006
BECMG 1811/1813 BKN012
PROB40
TEMPO 1813/1816 SCT013 BKN020
Pas de NOTAMs connus pour ce terrain.



MET'MAP, la Météo Aéronautique d'un coup d'oeil ! - Copyright ORBIFLY Décembre 2007 - Disclaimer

ORBIFLY MET'MAP TEAM :

Programmation & Développement : Alexandra Zaïnal
Conception & Développement : Baudouin d'Aumeries
Co-Programmation & Développement : Marc-Olivier Méhu
Soutien technique & logistique : Manuel Goepfert

Contact : metmap@orbifly.com




SOURCES & CREDITS :

   NOAA